sensor_id;sensor_type;location;lat;lon;timestamp;P1;durP1;ratioP1;P2;durP2;ratioP2
11691;SDS011;33659;42.672;23.354;2022-11-25T00:01:51;3.07;;;2.57;;
11691;SDS011;33659;42.672;23.354;2022-11-25T00:04:17;2.83;;;2.63;;
11691;SDS011;33659;42.672;23.354;2022-11-25T00:06:44;2.77;;;2.57;;
11691;SDS011;33659;42.672;23.354;2022-11-25T00:09:11;2.33;;;2.13;;
11691;SDS011;33659;42.672;23.354;2022-11-25T00:11:40;2.10;;;2.00;;
11691;SDS011;33659;42.672;23.354;2022-11-25T00:14:09;2.40;;;2.20;;
11691;SDS011;33659;42.672;23.354;2022-11-25T00:16:38;2.40;;;2.20;;
11691;SDS011;33659;42.672;23.354;2022-11-25T00:19:05;2.47;;;2.27;;
11691;SDS011;33659;42.672;23.354;2022-11-25T00:21:32;3.63;;;2.53;;
11691;SDS011;33659;42.672;23.354;2022-11-25T00:24:00;3.30;;;2.63;;
11691;SDS011;33659;42.672;23.354;2022-11-25T00:26:30;3.63;;;2.40;;
11691;SDS011;33659;42.672;23.354;2022-11-25T00:28:59;2.63;;;2.43;;
11691;SDS011;33659;42.672;23.354;2022-11-25T00:31:28;2.47;;;2.27;;
11691;SDS011;33659;42.672;23.354;2022-11-25T00:33:56;2.47;;;2.23;;
11691;SDS011;33659;42.672;23.354;2022-11-25T00:36:24;2.73;;;2.40;;
11691;SDS011;33659;42.672;23.354;2022-11-25T00:38:52;2.97;;;2.57;;
11691;SDS011;33659;42.672;23.354;2022-11-25T00:41:19;2.80;;;2.27;;
11691;SDS011;33659;42.672;23.354;2022-11-25T00:44:06;3.23;;;2.97;;
11691;SDS011;33659;42.672;23.354;2022-11-25T00:46:52;3.67;;;2.50;;
11691;SDS011;33659;42.672;23.354;2022-11-25T00:49:18;3.50;;;2.57;;
11691;SDS011;33659;42.672;23.354;2022-11-25T00:51:45;2.80;;;2.43;;
11691;SDS011;33659;42.672;23.354;2022-11-25T00:54:12;3.50;;;2.77;;
11691;SDS011;33659;42.672;23.354;2022-11-25T00:56:39;3.63;;;3.17;;
11691;SDS011;33659;42.672;23.354;2022-11-25T00:59:07;4.23;;;2.80;;
11691;SDS011;33659;42.672;23.354;2022-11-25T01:01:34;3.27;;;3.07;;
11691;SDS011;33659;42.672;23.354;2022-11-25T01:04:02;4.90;;;2.70;;
11691;SDS011;33659;42.672;23.354;2022-11-25T01:06:29;4.10;;;2.97;;
11691;SDS011;33659;42.672;23.354;2022-11-25T01:08:56;3.20;;;2.90;;
11691;SDS011;33659;42.672;23.354;2022-11-25T01:11:23;3.07;;;2.77;;
11691;SDS011;33659;42.672;23.354;2022-11-25T01:13:50;2.93;;;2.73;;
11691;SDS011;33659;42.672;23.354;2022-11-25T01:16:20;3.47;;;2.70;;
11691;SDS011;33659;42.672;23.354;2022-11-25T01:18:47;3.40;;;2.63;;
11691;SDS011;33659;42.672;23.354;2022-11-25T01:21:15;2.77;;;2.57;;
11691;SDS011;33659;42.672;23.354;2022-11-25T01:23:43;2.67;;;2.43;;
11691;SDS011;33659;42.672;23.354;2022-11-25T01:26:11;2.60;;;2.30;;
11691;SDS011;33659;42.672;23.354;2022-11-25T01:28:39;2.60;;;2.40;;
11691;SDS011;33659;42.672;23.354;2022-11-25T01:31:06;3.10;;;2.90;;
11691;SDS011;33659;42.672;23.354;2022-11-25T01:33:35;4.23;;;3.07;;
11691;SDS011;33659;42.672;23.354;2022-11-25T01:36:03;2.93;;;2.63;;
11691;SDS011;33659;42.672;23.354;2022-11-25T01:38:32;3.57;;;2.87;;
11691;SDS011;33659;42.672;23.354;2022-11-25T01:40:59;2.67;;;2.47;;
11691;SDS011;33659;42.672;23.354;2022-11-25T01:43:27;3.20;;;2.77;;
11691;SDS011;33659;42.672;23.354;2022-11-25T01:45:55;6.03;;;2.90;;
11691;SDS011;33659;42.672;23.354;2022-11-25T01:48:28;3.57;;;2.40;;
11691;SDS011;33659;42.672;23.354;2022-11-25T01:51:03;2.57;;;2.33;;
11691;SDS011;33659;42.672;23.354;2022-11-25T01:53:30;2.93;;;2.30;;
11691;SDS011;33659;42.672;23.354;2022-11-25T01:55:59;3.07;;;2.50;;
11691;SDS011;33659;42.672;23.354;2022-11-25T01:58:29;2.90;;;2.67;;
11691;SDS011;33659;42.672;23.354;2022-11-25T02:00:59;4.10;;;2.33;;
11691;SDS011;33659;42.672;23.354;2022-11-25T02:03:27;2.10;;;2.00;;
11691;SDS011;33659;42.672;23.354;2022-11-25T02:05:59;2.80;;;2.60;;
11691;SDS011;33659;42.672;23.354;2022-11-25T02:08:35;2.47;;;2.27;;
11691;SDS011;33659;42.672;23.354;2022-11-25T02:11:02;2.17;;;2.07;;
11691;SDS011;33659;42.672;23.354;2022-11-25T02:13:29;3.23;;;2.53;;
11691;SDS011;33659;42.672;23.354;2022-11-25T02:15:57;3.20;;;2.37;;
11691;SDS011;33659;42.672;23.354;2022-11-25T02:18:25;2.37;;;2.17;;
11691;SDS011;33659;42.672;23.354;2022-11-25T02:20:52;2.00;;;1.90;;
11691;SDS011;33659;42.672;23.354;2022-11-25T02:23:23;2.60;;;2.10;;
11691;SDS011;33659;42.672;23.354;2022-11-25T02:25:59;2.73;;;2.30;;
11691;SDS011;33659;42.672;23.354;2022-11-25T02:28:28;2.17;;;2.00;;
11691;SDS011;33659;42.672;23.354;2022-11-25T02:30:56;3.20;;;2.30;;
11691;SDS011;33659;42.672;23.354;2022-11-25T02:33:23;3.03;;;2.40;;
11691;SDS011;33659;42.672;23.354;2022-11-25T02:35:51;2.10;;;1.97;;
11691;SDS011;33659;42.672;23.354;2022-11-25T02:38:21;2.00;;;1.90;;
11691;SDS011;33659;42.672;23.354;2022-11-25T02:40:51;2.50;;;2.30;;
11691;SDS011;33659;42.672;23.354;2022-11-25T02:43:24;2.37;;;2.13;;
11691;SDS011;33659;42.672;23.354;2022-11-25T02:45:52;2.47;;;2.00;;
11691;SDS011;33659;42.672;23.354;2022-11-25T02:48:23;2.43;;;1.90;;
11691;SDS011;33659;42.672;23.354;2022-11-25T02:50:51;4.20;;;2.17;;
11691;SDS011;33659;42.672;23.354;2022-11-25T02:53:18;2.40;;;2.20;;
11691;SDS011;33659;42.672;23.354;2022-11-25T02:55:45;2.63;;;1.87;;
11691;SDS011;33659;42.672;23.354;2022-11-25T02:58:12;2.50;;;2.30;;
11691;SDS011;33659;42.672;23.354;2022-11-25T03:00:41;2.43;;;2.23;;
11691;SDS011;33659;42.672;23.354;2022-11-25T03:03:08;2.47;;;2.27;;
11691;SDS011;33659;42.672;23.354;2022-11-25T03:05:36;3.90;;;1.70;;
11691;SDS011;33659;42.672;23.354;2022-11-25T03:08:03;3.60;;;2.00;;
11691;SDS011;33659;42.672;23.354;2022-11-25T03:10:30;2.80;;;2.27;;
11691;SDS011;33659;42.672;23.354;2022-11-25T03:12:57;2.40;;;2.20;;
11691;SDS011;33659;42.672;23.354;2022-11-25T03:15:24;3.80;;;2.17;;
11691;SDS011;33659;42.672;23.354;2022-11-25T03:17:52;3.33;;;2.43;;
11691;SDS011;33659;42.672;23.354;2022-11-25T03:20:19;2.47;;;2.27;;
11691;SDS011;33659;42.672;23.354;2022-11-25T03:22:46;2.87;;;2.53;;
11691;SDS011;33659;42.672;23.354;2022-11-25T03:25:13;2.43;;;2.23;;
11691;SDS011;33659;42.672;23.354;2022-11-25T03:27:41;2.83;;;2.40;;
11691;SDS011;33659;42.672;23.354;2022-11-25T03:30:09;2.57;;;2.37;;
11691;SDS011;33659;42.672;23.354;2022-11-25T03:32:37;2.93;;;2.73;;
11691;SDS011;33659;42.672;23.354;2022-11-25T03:35:06;2.90;;;2.60;;
11691;SDS011;33659;42.672;23.354;2022-11-25T03:37:33;2.87;;;2.20;;
11691;SDS011;33659;42.672;23.354;2022-11-25T03:40:00;3.10;;;2.80;;
11691;SDS011;33659;42.672;23.354;2022-11-25T03:42:27;2.87;;;2.67;;
11691;SDS011;33659;42.672;23.354;2022-11-25T03:44:54;3.10;;;2.73;;
11691;SDS011;33659;42.672;23.354;2022-11-25T03:47:20;2.90;;;2.50;;
11691;SDS011;33659;42.672;23.354;2022-11-25T03:49:47;2.90;;;2.70;;
11691;SDS011;33659;42.672;23.354;2022-11-25T03:52:15;5.10;;;2.50;;
11691;SDS011;33659;42.672;23.354;2022-11-25T03:54:42;3.03;;;2.73;;
11691;SDS011;33659;42.672;23.354;2022-11-25T03:57:09;3.83;;;2.60;;
11691;SDS011;33659;42.672;23.354;2022-11-25T03:59:36;2.60;;;2.40;;
11691;SDS011;33659;42.672;23.354;2022-11-25T04:02:03;4.03;;;2.40;;
11691;SDS011;33659;42.672;23.354;2022-11-25T04:04:29;2.73;;;2.53;;
11691;SDS011;33659;42.672;23.354;2022-11-25T04:06:56;2.47;;;2.30;;
11691;SDS011;33659;42.672;23.354;2022-11-25T04:09:24;2.80;;;2.30;;
11691;SDS011;33659;42.672;23.354;2022-11-25T04:11:51;3.33;;;2.30;;
11691;SDS011;33659;42.672;23.354;2022-11-25T04:14:35;2.40;;;2.20;;
11691;SDS011;33659;42.672;23.354;2022-11-25T04:17:02;1.90;;;1.80;;
11691;SDS011;33659;42.672;23.354;2022-11-25T04:19:28;2.70;;;2.13;;
11691;SDS011;33659;42.672;23.354;2022-11-25T04:21:55;2.60;;;2.40;;
11691;SDS011;33659;42.672;23.354;2022-11-25T04:24:25;2.00;;;1.90;;
11691;SDS011;33659;42.672;23.354;2022-11-25T04:26:51;2.40;;;2.20;;
11691;SDS011;33659;42.672;23.354;2022-11-25T04:29:18;1.97;;;1.80;;
11691;SDS011;33659;42.672;23.354;2022-11-25T04:31:45;2.47;;;2.27;;
11691;SDS011;33659;42.672;23.354;2022-11-25T04:34:12;2.67;;;2.30;;
11691;SDS011;33659;42.672;23.354;2022-11-25T04:36:39;2.00;;;1.90;;
11691;SDS011;33659;42.672;23.354;2022-11-25T04:39:06;2.27;;;2.07;;
11691;SDS011;33659;42.672;23.354;2022-11-25T04:41:34;2.40;;;1.80;;
11691;SDS011;33659;42.672;23.354;2022-11-25T04:44:00;2.07;;;1.97;;
11691;SDS011;33659;42.672;23.354;2022-11-25T04:46:29;2.07;;;1.93;;
11691;SDS011;33659;42.672;23.354;2022-11-25T04:48:59;2.13;;;2.00;;
11691;SDS011;33659;42.672;23.354;2022-11-25T04:51:26;2.20;;;2.10;;
11691;SDS011;33659;42.672;23.354;2022-11-25T04:53:52;1.97;;;1.87;;
11691;SDS011;33659;42.672;23.354;2022-11-25T04:56:19;2.00;;;1.90;;
11691;SDS011;33659;42.672;23.354;2022-11-25T04:58:47;2.90;;;2.30;;
11691;SDS011;33659;42.672;23.354;2022-11-25T05:01:31;2.37;;;2.17;;
11691;SDS011;33659;42.672;23.354;2022-11-25T05:03:58;2.20;;;2.07;;
11691;SDS011;33659;42.672;23.354;2022-11-25T05:06:25;2.87;;;2.23;;
11691;SDS011;33659;42.672;23.354;2022-11-25T05:08:51;2.10;;;2.00;;
11691;SDS011;33659;42.672;23.354;2022-11-25T05:11:18;1.80;;;1.70;;
11691;SDS011;33659;42.672;23.354;2022-11-25T05:13:45;1.73;;;1.63;;
11691;SDS011;33659;42.672;23.354;2022-11-25T05:16:13;2.70;;;2.27;;
11691;SDS011;33659;42.672;23.354;2022-11-25T05:18:39;3.80;;;2.10;;
11691;SDS011;33659;42.672;23.354;2022-11-25T05:21:06;2.13;;;2.03;;
11691;SDS011;33659;42.672;23.354;2022-11-25T05:23:33;2.57;;;2.37;;
11691;SDS011;33659;42.672;23.354;2022-11-25T05:25:59;2.57;;;2.00;;
11691;SDS011;33659;42.672;23.354;2022-11-25T05:28:27;1.93;;;1.83;;
11691;SDS011;33659;42.672;23.354;2022-11-25T05:30:54;1.97;;;1.87;;
11691;SDS011;33659;42.672;23.354;2022-11-25T05:33:23;3.33;;;2.20;;
11691;SDS011;33659;42.672;23.354;2022-11-25T05:35:53;1.90;;;1.80;;
11691;SDS011;33659;42.672;23.354;2022-11-25T05:38:21;2.17;;;2.03;;
11691;SDS011;33659;42.672;23.354;2022-11-25T05:40:48;2.20;;;2.03;;
11691;SDS011;33659;42.672;23.354;2022-11-25T05:43:15;3.17;;;2.30;;
11691;SDS011;33659;42.672;23.354;2022-11-25T05:45:42;2.17;;;2.07;;
11691;SDS011;33659;42.672;23.354;2022-11-25T05:48:08;1.90;;;1.80;;
11691;SDS011;33659;42.672;23.354;2022-11-25T05:50:37;4.97;;;2.30;;
11691;SDS011;33659;42.672;23.354;2022-11-25T05:53:04;2.23;;;2.13;;
11691;SDS011;33659;42.672;23.354;2022-11-25T05:55:30;3.17;;;2.10;;
11691;SDS011;33659;42.672;23.354;2022-11-25T05:57:57;3.20;;;2.10;;
11691;SDS011;33659;42.672;23.354;2022-11-25T06:00:24;2.20;;;2.10;;
11691;SDS011;33659;42.672;23.354;2022-11-25T06:02:51;3.00;;;2.10;;
11691;SDS011;33659;42.672;23.354;2022-11-25T06:05:18;3.03;;;1.93;;
11691;SDS011;33659;42.672;23.354;2022-11-25T06:07:46;2.50;;;2.23;;
11691;SDS011;33659;42.672;23.354;2022-11-25T06:10:14;2.30;;;2.20;;
11691;SDS011;33659;42.672;23.354;2022-11-25T06:12:41;2.20;;;2.10;;
11691;SDS011;33659;42.672;23.354;2022-11-25T06:15:08;2.03;;;1.93;;
11691;SDS011;33659;42.672;23.354;2022-11-25T06:17:36;2.23;;;2.03;;
11691;SDS011;33659;42.672;23.354;2022-11-25T06:20:03;2.07;;;1.97;;
11691;SDS011;33659;42.672;23.354;2022-11-25T06:22:31;2.30;;;2.20;;
11691;SDS011;33659;42.672;23.354;2022-11-25T06:24:59;4.83;;;2.30;;
11691;SDS011;33659;42.672;23.354;2022-11-25T06:27:26;2.57;;;2.37;;
11691;SDS011;33659;42.672;23.354;2022-11-25T06:29:52;2.57;;;2.37;;
11691;SDS011;33659;42.672;23.354;2022-11-25T06:32:19;1.70;;;1.60;;
11691;SDS011;33659;42.672;23.354;2022-11-25T06:34:46;2.63;;;2.23;;
11691;SDS011;33659;42.672;23.354;2022-11-25T06:37:12;2.17;;;2.07;;
11691;SDS011;33659;42.672;23.354;2022-11-25T06:39:39;2.57;;;2.37;;
11691;SDS011;33659;42.672;23.354;2022-11-25T06:42:07;2.40;;;2.30;;
11691;SDS011;33659;42.672;23.354;2022-11-25T06:44:35;2.13;;;2.03;;
11691;SDS011;33659;42.672;23.354;2022-11-25T06:47:03;2.43;;;2.23;;
11691;SDS011;33659;42.672;23.354;2022-11-25T06:49:31;2.90;;;2.27;;
11691;SDS011;33659;42.672;23.354;2022-11-25T06:52:00;2.80;;;2.30;;
11691;SDS011;33659;42.672;23.354;2022-11-25T06:54:26;2.50;;;2.30;;
11691;SDS011;33659;42.672;23.354;2022-11-25T06:56:53;2.60;;;2.30;;
11691;SDS011;33659;42.672;23.354;2022-11-25T06:59:21;4.57;;;2.53;;
11691;SDS011;33659;42.672;23.354;2022-11-25T07:01:48;3.83;;;2.43;;
11691;SDS011;33659;42.672;23.354;2022-11-25T07:04:15;3.27;;;2.90;;
11691;SDS011;33659;42.672;23.354;2022-11-25T07:06:41;4.50;;;2.60;;
11691;SDS011;33659;42.672;23.354;2022-11-25T07:09:08;3.00;;;2.70;;
11691;SDS011;33659;42.672;23.354;2022-11-25T07:11:35;2.83;;;2.63;;
11691;SDS011;33659;42.672;23.354;2022-11-25T07:14:05;3.97;;;2.77;;
11691;SDS011;33659;42.672;23.354;2022-11-25T07:16:35;2.80;;;2.60;;
11691;SDS011;33659;42.672;23.354;2022-11-25T07:19:03;2.63;;;2.43;;
11691;SDS011;33659;42.672;23.354;2022-11-25T07:21:30;3.40;;;3.10;;
11691;SDS011;33659;42.672;23.354;2022-11-25T07:23:59;3.40;;;2.70;;
11691;SDS011;33659;42.672;23.354;2022-11-25T07:26:27;3.43;;;2.60;;
11691;SDS011;33659;42.672;23.354;2022-11-25T07:28:56;3.00;;;2.80;;
11691;SDS011;33659;42.672;23.354;2022-11-25T07:31:25;3.10;;;2.80;;
11691;SDS011;33659;42.672;23.354;2022-11-25T07:33:55;4.00;;;3.10;;
11691;SDS011;33659;42.672;23.354;2022-11-25T07:36:23;4.57;;;2.33;;
11691;SDS011;33659;42.672;23.354;2022-11-25T07:38:50;3.63;;;2.90;;
11691;SDS011;33659;42.672;23.354;2022-11-25T07:41:17;2.60;;;2.40;;
11691;SDS011;33659;42.672;23.354;2022-11-25T07:43:45;2.87;;;2.50;;
11691;SDS011;33659;42.672;23.354;2022-11-25T07:46:14;3.17;;;2.60;;
11691;SDS011;33659;42.672;23.354;2022-11-25T07:48:43;3.10;;;2.73;;
11691;SDS011;33659;42.672;23.354;2022-11-25T07:51:15;5.27;;;3.73;;
11691;SDS011;33659;42.672;23.354;2022-11-25T07:53:44;4.67;;;3.07;;
11691;SDS011;33659;42.672;23.354;2022-11-25T07:56:12;3.40;;;3.03;;
11691;SDS011;33659;42.672;23.354;2022-11-25T07:58:39;4.37;;;3.23;;
11691;SDS011;33659;42.672;23.354;2022-11-25T08:01:08;3.50;;;2.83;;
11691;SDS011;33659;42.672;23.354;2022-11-25T08:03:37;5.33;;;3.20;;
11691;SDS011;33659;42.672;23.354;2022-11-25T08:06:06;3.90;;;3.10;;
11691;SDS011;33659;42.672;23.354;2022-11-25T08:08:36;2.97;;;2.77;;
11691;SDS011;33659;42.672;23.354;2022-11-25T08:11:04;3.23;;;2.93;;
11691;SDS011;33659;42.672;23.354;2022-11-25T08:13:32;2.70;;;2.50;;
11691;SDS011;33659;42.672;23.354;2022-11-25T08:15:58;5.17;;;2.57;;
11691;SDS011;33659;42.672;23.354;2022-11-25T08:18:25;3.10;;;2.80;;
11691;SDS011;33659;42.672;23.354;2022-11-25T08:20:52;2.90;;;2.67;;
11691;SDS011;33659;42.672;23.354;2022-11-25T08:23:24;3.13;;;2.70;;
11691;SDS011;33659;42.672;23.354;2022-11-25T08:25:52;3.93;;;2.97;;
11691;SDS011;33659;42.672;23.354;2022-11-25T08:28:18;3.03;;;2.73;;
11691;SDS011;33659;42.672;23.354;2022-11-25T08:30:45;4.47;;;3.07;;
11691;SDS011;33659;42.672;23.354;2022-11-25T08:33:12;3.37;;;3.07;;
11691;SDS011;33659;42.672;23.354;2022-11-25T08:35:39;2.97;;;2.67;;
11691;SDS011;33659;42.672;23.354;2022-11-25T08:38:06;3.43;;;2.80;;
11691;SDS011;33659;42.672;23.354;2022-11-25T08:40:34;2.63;;;2.43;;
11691;SDS011;33659;42.672;23.354;2022-11-25T08:43:03;4.20;;;2.70;;
11691;SDS011;33659;42.672;23.354;2022-11-25T08:45:30;3.20;;;2.87;;
11691;SDS011;33659;42.672;23.354;2022-11-25T08:47:57;3.50;;;3.20;;
11691;SDS011;33659;42.672;23.354;2022-11-25T08:50:24;5.57;;;3.00;;
11691;SDS011;33659;42.672;23.354;2022-11-25T08:52:52;3.10;;;2.90;;
11691;SDS011;33659;42.672;23.354;2022-11-25T08:55:19;3.80;;;3.23;;
11691;SDS011;33659;42.672;23.354;2022-11-25T08:57:46;2.77;;;2.57;;
11691;SDS011;33659;42.672;23.354;2022-11-25T09:00:15;3.60;;;3.07;;
11691;SDS011;33659;42.672;23.354;2022-11-25T09:02:42;2.70;;;2.50;;
11691;SDS011;33659;42.672;23.354;2022-11-25T09:05:10;5.03;;;3.17;;
11691;SDS011;33659;42.672;23.354;2022-11-25T09:07:37;3.23;;;2.93;;
11691;SDS011;33659;42.672;23.354;2022-11-25T09:10:05;4.10;;;2.90;;
11691;SDS011;33659;42.672;23.354;2022-11-25T09:12:33;4.07;;;3.20;;
11691;SDS011;33659;42.672;23.354;2022-11-25T09:15:00;3.33;;;2.70;;
11691;SDS011;33659;42.672;23.354;2022-11-25T09:17:28;2.80;;;2.60;;
11691;SDS011;33659;42.672;23.354;2022-11-25T09:19:54;3.07;;;2.60;;
11691;SDS011;33659;42.672;23.354;2022-11-25T09:22:21;4.00;;;3.03;;
11691;SDS011;33659;42.672;23.354;2022-11-25T09:24:48;4.07;;;3.10;;
11691;SDS011;33659;42.672;23.354;2022-11-25T09:27:15;4.03;;;3.43;;
11691;SDS011;33659;42.672;23.354;2022-11-25T09:29:41;5.63;;;2.90;;
11691;SDS011;33659;42.672;23.354;2022-11-25T09:32:08;3.13;;;2.77;;
11691;SDS011;33659;42.672;23.354;2022-11-25T09:34:36;2.87;;;2.27;;
11691;SDS011;33659;42.672;23.354;2022-11-25T09:37:03;3.37;;;3.07;;
11691;SDS011;33659;42.672;23.354;2022-11-25T09:39:29;3.27;;;2.97;;
11691;SDS011;33659;42.672;23.354;2022-11-25T09:42:04;5.90;;;3.17;;
11691;SDS011;33659;42.672;23.354;2022-11-25T09:45:02;2.97;;;2.20;;
11691;SDS011;33659;42.672;23.354;2022-11-25T09:47:58;3.87;;;3.20;;
11691;SDS011;33659;42.672;23.354;2022-11-25T09:50:40;4.23;;;3.20;;
11691;SDS011;33659;42.672;23.354;2022-11-25T09:53:20;2.77;;;2.53;;
11691;SDS011;33659;42.672;23.354;2022-11-25T09:55:57;2.97;;;2.77;;
11691;SDS011;33659;42.672;23.354;2022-11-25T09:58:29;3.67;;;3.17;;
11691;SDS011;33659;42.672;23.354;2022-11-25T10:00:59;3.90;;;2.90;;
11691;SDS011;33659;42.672;23.354;2022-11-25T10:03:31;3.20;;;2.90;;
11691;SDS011;33659;42.672;23.354;2022-11-25T10:06:06;3.30;;;3.00;;
11691;SDS011;33659;42.672;23.354;2022-11-25T10:08:39;3.03;;;2.67;;
11691;SDS011;33659;42.672;23.354;2022-11-25T10:11:13;3.10;;;2.80;;
11691;SDS011;33659;42.672;23.354;2022-11-25T10:13:49;3.03;;;2.70;;
11691;SDS011;33659;42.672;23.354;2022-11-25T10:16:26;4.33;;;2.73;;
11691;SDS011;33659;42.672;23.354;2022-11-25T10:19:00;3.70;;;2.50;;
11691;SDS011;33659;42.672;23.354;2022-11-25T10:21:32;2.80;;;2.60;;
11691;SDS011;33659;42.672;23.354;2022-11-25T10:23:59;2.87;;;2.60;;
11691;SDS011;33659;42.672;23.354;2022-11-25T10:26:28;4.17;;;2.47;;
11691;SDS011;33659;42.672;23.354;2022-11-25T10:29:04;2.23;;;2.03;;
11691;SDS011;33659;42.672;23.354;2022-11-25T10:31:45;2.50;;;2.30;;
11691;SDS011;33659;42.672;23.354;2022-11-25T10:34:14;3.10;;;2.40;;
11691;SDS011;33659;42.672;23.354;2022-11-25T10:36:49;2.77;;;2.37;;
11691;SDS011;33659;42.672;23.354;2022-11-25T10:39:20;5.30;;;2.37;;
11691;SDS011;33659;42.672;23.354;2022-11-25T10:41:54;2.83;;;2.63;;
11691;SDS011;33659;42.672;23.354;2022-11-25T10:44:24;2.33;;;2.20;;
11691;SDS011;33659;42.672;23.354;2022-11-25T10:46:56;2.70;;;2.27;;
11691;SDS011;33659;42.672;23.354;2022-11-25T10:49:40;2.50;;;2.30;;
11691;SDS011;33659;42.672;23.354;2022-11-25T10:52:14;2.63;;;2.10;;
11691;SDS011;33659;42.672;23.354;2022-11-25T10:54:54;2.27;;;1.70;;
11691;SDS011;33659;42.672;23.354;2022-11-25T10:57:25;2.70;;;2.37;;
11691;SDS011;33659;42.672;23.354;2022-11-25T10:59:54;2.53;;;1.77;;
11691;SDS011;33659;42.672;23.354;2022-11-25T11:02:23;4.60;;;2.30;;
11691;SDS011;33659;42.672;23.354;2022-11-25T11:04:54;2.50;;;2.30;;
11691;SDS011;33659;42.672;23.354;2022-11-25T11:07:24;2.63;;;2.43;;
11691;SDS011;33659;42.672;23.354;2022-11-25T11:09:52;2.77;;;2.30;;
11691;SDS011;33659;42.672;23.354;2022-11-25T11:12:20;3.10;;;2.00;;
11691;SDS011;33659;42.672;23.354;2022-11-25T11:14:49;3.30;;;2.47;;
11691;SDS011;33659;42.672;23.354;2022-11-25T11:17:21;2.53;;;2.10;;
11691;SDS011;33659;42.672;23.354;2022-11-25T11:20:15;3.20;;;2.53;;
11691;SDS011;33659;42.672;23.354;2022-11-25T11:22:49;2.97;;;2.67;;
11691;SDS011;33659;42.672;23.354;2022-11-25T11:25:28;4.07;;;3.00;;
11691;SDS011;33659;42.672;23.354;2022-11-25T11:27:56;2.67;;;2.13;;
11691;SDS011;33659;42.672;23.354;2022-11-25T11:30:24;3.13;;;2.57;;
11691;SDS011;33659;42.672;23.354;2022-11-25T11:32:54;2.63;;;2.43;;
11691;SDS011;33659;42.672;23.354;2022-11-25T11:35:24;2.77;;;2.57;;
11691;SDS011;33659;42.672;23.354;2022-11-25T11:38:02;6.67;;;3.20;;
11691;SDS011;33659;42.672;23.354;2022-11-25T11:40:40;2.90;;;2.53;;
11691;SDS011;33659;42.672;23.354;2022-11-25T11:46:19;2.67;;;2.47;;
11691;SDS011;33659;42.672;23.354;2022-11-25T11:48:58;2.80;;;2.47;;
11691;SDS011;33659;42.672;23.354;2022-11-25T11:51:37;4.20;;;2.93;;
11691;SDS011;33659;42.672;23.354;2022-11-25T11:54:12;2.50;;;2.30;;
11691;SDS011;33659;42.672;23.354;2022-11-25T11:56:46;2.83;;;2.63;;
11691;SDS011;33659;42.672;23.354;2022-11-25T11:59:23;2.70;;;2.50;;
11691;SDS011;33659;42.672;23.354;2022-11-25T12:02:21;3.77;;;2.50;;
11691;SDS011;33659;42.672;23.354;2022-11-25T12:04:56;3.57;;;2.73;;
11691;SDS011;33659;42.672;23.354;2022-11-25T12:07:31;3.10;;;2.53;;
11691;SDS011;33659;42.672;23.354;2022-11-25T12:10:04;4.72;;;2.42;;
11691;SDS011;33659;42.672;23.354;2022-11-25T12:12:43;2.55;;;2.35;;
11691;SDS011;33659;42.672;23.354;2022-11-25T12:15:15;2.73;;;2.50;;
11691;SDS011;33659;42.672;23.354;2022-11-25T12:17:49;3.08;;;2.55;;
11691;SDS011;33659;42.672;23.354;2022-11-25T12:20:21;3.33;;;2.60;;
11691;SDS011;33659;42.672;23.354;2022-11-25T12:22:58;2.90;;;2.60;;
11691;SDS011;33659;42.672;23.354;2022-11-25T12:25:30;3.10;;;2.60;;
11691;SDS011;33659;42.672;23.354;2022-11-25T12:28:02;2.33;;;2.13;;
11691;SDS011;33659;42.672;23.354;2022-11-25T12:30:34;3.03;;;2.73;;
11691;SDS011;33659;42.672;23.354;2022-11-25T12:33:05;3.47;;;2.65;;
11691;SDS011;33659;42.672;23.354;2022-11-25T12:35:43;2.80;;;2.22;;
11691;SDS011;33659;42.672;23.354;2022-11-25T12:38:20;2.95;;;2.67;;
11691;SDS011;33659;42.672;23.354;2022-11-25T12:40:55;3.42;;;2.67;;
11691;SDS011;33659;42.672;23.354;2022-11-25T12:43:31;8.57;;;2.80;;
11691;SDS011;33659;42.672;23.354;2022-11-25T12:46:04;3.08;;;2.78;;
11691;SDS011;33659;42.672;23.354;2022-11-25T12:48:39;4.30;;;2.42;;
11691;SDS011;33659;42.672;23.354;2022-11-25T12:51:09;3.10;;;2.53;;
11691;SDS011;33659;42.672;23.354;2022-11-25T12:54:00;2.78;;;2.58;;
11691;SDS011;33659;42.672;23.354;2022-11-25T12:56:41;2.70;;;2.50;;
11691;SDS011;33659;42.672;23.354;2022-11-25T12:59:29;2.33;;;2.13;;
11691;SDS011;33659;42.672;23.354;2022-11-25T13:02:18;2.83;;;2.53;;
11691;SDS011;33659;42.672;23.354;2022-11-25T13:05:12;3.20;;;2.90;;
11691;SDS011;33659;42.672;23.354;2022-11-25T13:07:52;4.90;;;2.97;;
11691;SDS011;33659;42.672;23.354;2022-11-25T13:10:35;4.60;;;2.92;;
11691;SDS011;33659;42.672;23.354;2022-11-25T13:13:14;5.13;;;3.10;;
11691;SDS011;33659;42.672;23.354;2022-11-25T13:15:50;3.97;;;2.67;;
11691;SDS011;33659;42.672;23.354;2022-11-25T13:18:19;5.10;;;2.93;;
11691;SDS011;33659;42.672;23.354;2022-11-25T13:20:49;3.57;;;3.07;;
11691;SDS011;33659;42.672;23.354;2022-11-25T13:23:24;4.20;;;3.03;;
11691;SDS011;33659;42.672;23.354;2022-11-25T13:25:53;4.37;;;3.17;;
11691;SDS011;33659;42.672;23.354;2022-11-25T13:29:04;3.63;;;3.00;;
11691;SDS011;33659;42.672;23.354;2022-11-25T13:31:32;3.77;;;3.20;;
11691;SDS011;33659;42.672;23.354;2022-11-25T13:36:51;4.77;;;3.80;;
11691;SDS011;33659;42.672;23.354;2022-11-25T13:39:27;4.73;;;3.57;;
11691;SDS011;33659;42.672;23.354;2022-11-25T13:41:59;3.53;;;3.23;;
11691;SDS011;33659;42.672;23.354;2022-11-25T13:44:30;4.63;;;3.30;;
11691;SDS011;33659;42.672;23.354;2022-11-25T13:49:50;5.90;;;3.70;;
11691;SDS011;33659;42.672;23.354;2022-11-25T13:52:30;3.70;;;3.40;;
11691;SDS011;33659;42.672;23.354;2022-11-25T13:55:01;3.33;;;2.97;;
11691;SDS011;33659;42.672;23.354;2022-11-25T13:57:35;5.23;;;3.70;;
11691;SDS011;33659;42.672;23.354;2022-11-25T14:00:07;5.37;;;3.27;;
11691;SDS011;33659;42.672;23.354;2022-11-25T14:02:55;4.77;;;3.80;;
11691;SDS011;33659;42.672;23.354;2022-11-25T14:06:01;4.60;;;3.80;;
11691;SDS011;33659;42.672;23.354;2022-11-25T14:08:35;4.10;;;3.70;;
11691;SDS011;33659;42.672;23.354;2022-11-25T14:11:21;5.03;;;3.40;;
11691;SDS011;33659;42.672;23.354;2022-11-25T14:14:19;4.73;;;3.77;;
11691;SDS011;33659;42.672;23.354;2022-11-25T14:17:05;6.33;;;3.83;;
11691;SDS011;33659;42.672;23.354;2022-11-25T14:19:57;4.63;;;4.17;;
11691;SDS011;33659;42.672;23.354;2022-11-25T14:22:34;4.80;;;4.03;;
11691;SDS011;33659;42.672;23.354;2022-11-25T14:25:20;5.07;;;4.50;;
11691;SDS011;33659;42.672;23.354;2022-11-25T14:27:51;6.03;;;4.20;;
11691;SDS011;33659;42.672;23.354;2022-11-25T14:30:23;6.60;;;3.97;;
11691;SDS011;33659;42.672;23.354;2022-11-25T14:32:54;5.90;;;4.87;;
11691;SDS011;33659;42.672;23.354;2022-11-25T14:35:26;8.30;;;5.60;;
11691;SDS011;33659;42.672;23.354;2022-11-25T14:37:57;5.03;;;4.43;;
11691;SDS011;33659;42.672;23.354;2022-11-25T14:40:27;6.10;;;4.70;;
11691;SDS011;33659;42.672;23.354;2022-11-25T14:43:01;7.00;;;4.87;;
11691;SDS011;33659;42.672;23.354;2022-11-25T14:45:31;8.67;;;5.23;;
11691;SDS011;33659;42.672;23.354;2022-11-25T14:48:12;5.87;;;4.93;;
11691;SDS011;33659;42.672;23.354;2022-11-25T14:50:40;5.30;;;3.73;;
11691;SDS011;33659;42.672;23.354;2022-11-25T14:53:18;6.20;;;5.50;;
11691;SDS011;33659;42.672;23.354;2022-11-25T14:55:45;4.80;;;4.30;;
11691;SDS011;33659;42.672;23.354;2022-11-25T14:58:13;5.37;;;4.57;;
11691;SDS011;33659;42.672;23.354;2022-11-25T15:00:48;6.27;;;4.70;;
11691;SDS011;33659;42.672;23.354;2022-11-25T15:03:17;6.87;;;4.60;;